HKKI

Kisumu Airport

Kisumu, Kenya
TAF HKKI 211100Z 2112/2212 17005KT 9999 FEW026CB SCT028 BECMG 2115/2118 34008KT FEW024CB BKN026 BECMG 2118/2121 04005KT BECMG 2200/2203 09005KT
Issued Valid From Valid To
Jul-21 @ 11:00 UTC
(12 hours ago)
Jul-21 @ 12:00 UTC
(11 hours ago)
Jul-22 @ 12:00 UTC
(in 13 hours)
Expired Click to View Jul-21 @ 12:00 to Jul-21 @ 15:00
TAF HKKI 211100Z 2112/2212 17005KT 9999 FEW026CB SCT028
Wind Visibility Clouds
170° at 5 knots 10,000+ meters
  • Few at 2,600' AGL
  • Scattered at 2,800' AGL
Expired Click to View Jul-21 @ 15:00 to Jul-21 @ 18:00
BECMG 2115/2118 34008KT FEW024CB BKN026
Wind Visibility Clouds
340° at 8 knots 10,000+ meters
  • Few at 2,400' AGL
  • Broken at 2,600' AGL
Becoming Jul-21 @ 18:00 to Jul-22 @ 00:00
BECMG 2118/2121 04005KT
Wind Visibility Clouds
40° at 5 knots 10,000+ meters
  • Few at 2,400' AGL
  • Broken at 2,600' AGL
Becoming Jul-22 @ 00:00 to Jul-22 @ 12:00
BECMG 2200/2203 09005KT
Wind Visibility Clouds
90° at 5 knots 10,000+ meters
  • Few at 2,400' AGL
  • Broken at 2,600' AGL
TAF HKKI 211100Z 2112/2212 17005KT 9999 FEW026CB SCT028 BECMG 2115/2118 34008KT FEW024CB BKN026 BECMG 2118/2121 04005KT BECMG 2200/2203 09005KT
Issued Jul-21 @ 11:00 UTC
(12 hours ago)
Valid From Jul-21 @ 12:00 UTC
(11 hours ago)
Valid To Jul-22 @ 12:00 UTC
(in 13 hours)
Jul-21 @ 12:00 - Jul-21 @ 15:00
Wind Visibility
170° at 5 knots 10,000+ meters
Clouds
  • Few at 2,600' AGL
  • Scattered at 2,800' AGL
Jul-21 @ 15:00 - Jul-21 @ 18:00
Wind Visibility
340° at 8 knots 10,000+ meters
Clouds
  • Few at 2,400' AGL
  • Broken at 2,600' AGL
Becoming Jul-21 @ 18:00 - Jul-22 @ 00:00
Wind Visibility
40° at 5 knots 10,000+ meters
Clouds
  • Few at 2,400' AGL
  • Broken at 2,600' AGL
Becoming Jul-22 @ 00:00 - Jul-22 @ 12:00
Wind Visibility
90° at 5 knots 10,000+ meters
Clouds
  • Few at 2,400' AGL
  • Broken at 2,600' AGL